aviador You're here:

OMRK Decoded Metar

RAS AL KHAIMAH in UNITED ARAB EMIRATES
Report Time2017-11-20 21:00:00
UTC Time2017-11-20 21:18:12
Flight Rules vfr VFR
Wind230° at 05 kt
W.Decomp.*RWY 16: 1.8 kt HW 4.7 kt RCW
W.Rank230° ranks 9
Current wind is above 230° avg. (4.2)
Visibility9999 m
Phenomena:N/A
Clouds:Few 040 Hf
Expected CloudBase > 3,600 ft AGL from Temp-Dew spread
CeilingNone
Temp19°C (ISA +4)
Dew Point10°C (56% RH)
AAT17.3°C
QNH1017 hPa
Density Alt627 ft
Elevation102 ft
Report Wrong Elevation
Raw Report
METAR OMRK 202100Z 23005KT 9999 FEW040 19/10 Q1017 A3004=

Extra information for OMRK:More info

Metar Taf Metar & Taf Last 4 Metars F.Rules Stats Wind Profile Meteogram Temp Stats Airport Information Weather charts Add Link Nearby VenuesMetar ALERT Operation Metar Decoded Social comments